createdAt,value
2022-12-14T00:01:48.803Z,-9.59
2022-12-14T00:04:17.455Z,-9.57
2022-12-14T00:06:45.159Z,-9.53
2022-12-14T00:09:12.457Z,-9.54
2022-12-14T00:11:40.279Z,-9.59
2022-12-14T00:14:07.628Z,-9.62
2022-12-14T00:16:36.206Z,-9.68
2022-12-14T00:19:05.400Z,-9.76
2022-12-14T00:21:33.912Z,-9.86
2022-12-14T00:24:01.157Z,-9.94
2022-12-14T00:26:31.442Z,-10.02
2022-12-14T00:29:00.459Z,-10.15
2022-12-14T00:31:29.346Z,-10.15
2022-12-14T00:33:56.766Z,-10.25
2022-12-14T00:36:24.753Z,-10.36
2022-12-14T00:38:51.949Z,-10.42
2022-12-14T00:41:19.313Z,-10.47
2022-12-14T00:43:49.378Z,-10.53
2022-12-14T00:46:18.442Z,-10.63
2022-12-14T00:48:45.812Z,-10.63
2022-12-14T00:51:15.027Z,-10.72
2022-12-14T00:53:44.622Z,-10.75
2022-12-14T00:56:12.828Z,-10.81
2022-12-14T00:58:40.408Z,-10.80
2022-12-14T01:01:14.861Z,-10.89
2022-12-14T01:03:42.530Z,-10.94
2022-12-14T01:06:21.490Z,-11.03
2022-12-14T01:08:49.155Z,-11.06
2022-12-14T01:11:17.463Z,-11.06
2022-12-14T01:13:44.774Z,-11.10
2022-12-14T01:16:17.296Z,-11.16
2022-12-14T01:18:44.548Z,-11.20
2022-12-14T01:21:20.513Z,-11.24
2022-12-14T01:23:48.954Z,-11.29
2022-12-14T01:26:18.162Z,-11.32
2022-12-14T01:28:56.359Z,-11.34
2022-12-14T01:31:28.113Z,-11.45
2022-12-14T01:33:55.635Z,-11.53
2022-12-14T01:36:27.948Z,-11.62
2022-12-14T01:38:56.913Z,-11.67
2022-12-14T01:41:28.273Z,-11.83
2022-12-14T01:44:01.170Z,-11.77
2022-12-14T01:46:30.492Z,-11.83
2022-12-14T01:49:08.122Z,-11.86
2022-12-14T01:51:36.823Z,-11.95
2022-12-14T01:54:07.437Z,-11.97
2022-12-14T01:56:36.116Z,-12.06
2022-12-14T01:59:06.528Z,-12.17
2022-12-14T02:01:34.507Z,-12.19
2022-12-14T02:04:02.428Z,-12.27
2022-12-14T02:06:35.304Z,-12.30
2022-12-14T02:09:03.621Z,-12.37
2022-12-14T02:11:55.358Z,-12.43
2022-12-14T02:14:22.895Z,-12.45
2022-12-14T02:16:55.568Z,-12.60
2022-12-14T02:19:22.794Z,-12.66
2022-12-14T02:22:13.770Z,-12.71
2022-12-14T02:24:46.990Z,-12.72
2022-12-14T02:27:51.534Z,-12.80
2022-12-14T02:30:21.317Z,-12.89
2022-12-14T02:33:13.775Z,-12.98
2022-12-14T02:35:44.081Z,-13.04
2022-12-14T02:38:29.964Z,-13.09
2022-12-14T02:40:57.124Z,-13.14
2022-12-14T02:43:55.022Z,-13.26
2022-12-14T02:46:30.308Z,-13.38
2022-12-14T02:49:03.892Z,-13.49
2022-12-14T02:51:56.311Z,-13.42
2022-12-14T02:54:42.842Z,-13.37
2022-12-14T02:57:18.633Z,-13.37
2022-12-14T02:59:47.333Z,-13.34
2022-12-14T03:02:14.898Z,-13.38
2022-12-14T03:04:48.584Z,-13.42
2022-12-14T03:07:42.693Z,-13.44
2022-12-14T03:10:10.503Z,-13.49
2022-12-14T03:12:40.869Z,-13.63
2022-12-14T03:15:10.089Z,-13.77
2022-12-14T03:17:38.999Z,-13.73
2022-12-14T03:20:12.291Z,-13.77
2022-12-14T03:22:43.884Z,-13.83
2022-12-14T03:25:15.321Z,-13.77
2022-12-14T03:27:52.322Z,-13.76
2022-12-14T03:30:37.248Z,-13.77
2022-12-14T03:33:12.618Z,-13.80
2022-12-14T03:35:51.746Z,-13.83
2022-12-14T03:38:32.693Z,-13.88
2022-12-14T03:41:07.974Z,-13.91
2022-12-14T03:44:17.074Z,-13.89
2022-12-14T03:46:44.429Z,-13.92
2022-12-14T03:49:24.715Z,-13.94
2022-12-14T03:52:06.125Z,-13.88
2022-12-14T03:54:45.697Z,-13.87
2022-12-14T03:57:44.998Z,-13.86
2022-12-14T04:00:22.649Z,-13.84
2022-12-14T04:03:07.547Z,-13.79
2022-12-14T04:05:47.027Z,-13.75
2022-12-14T04:08:29.294Z,-13.68
2022-12-14T04:11:16.999Z,-13.65
2022-12-14T04:14:28.455Z,-13.55
2022-12-14T04:17:15.210Z,-13.48
2022-12-14T04:19:49.324Z,-13.49
2022-12-14T04:22:23.841Z,-13.48
2022-12-14T04:25:19.148Z,-13.49
2022-12-14T04:28:35.547Z,-13.47
2022-12-14T04:31:07.596Z,-13.33
2022-12-14T04:33:49.893Z,-13.24
2022-12-14T04:36:23.165Z,-13.08
2022-12-14T04:39:04.115Z,-12.91
2022-12-14T04:41:35.199Z,-12.76
2022-12-14T04:44:21.943Z,-12.60
2022-12-14T04:46:51.041Z,-12.42
2022-12-14T04:49:44.513Z,-12.23
2022-12-14T04:52:19.214Z,-12.08
2022-12-14T04:55:05.263Z,-11.87
2022-12-14T04:57:48.211Z,-11.70
2022-12-14T05:00:16.065Z,-11.57
2022-12-14T05:03:02.180Z,-11.40
2022-12-14T05:05:51.074Z,-11.25
2022-12-14T05:08:18.526Z,-11.11
2022-12-14T05:11:39.520Z,-11.02
2022-12-14T05:13:55.196Z,-10.94
2022-12-14T05:16:24.123Z,-10.77
2022-12-14T05:18:51.950Z,-10.66
2022-12-14T05:21:37.706Z,-10.53
2022-12-14T05:24:05.936Z,-10.39
2022-12-14T05:26:33.230Z,-10.33
2022-12-14T05:29:00.729Z,-10.29
2022-12-14T05:31:27.957Z,-10.18
2022-12-14T05:33:55.569Z,-10.05
2022-12-14T05:36:22.935Z,-9.95
2022-12-14T05:38:50.452Z,-9.89
2022-12-14T05:41:17.790Z,-9.75
2022-12-14T05:43:45.434Z,-9.62
2022-12-14T05:46:16.634Z,-9.53
2022-12-14T05:48:49.007Z,-9.55
2022-12-14T05:51:17.135Z,-9.47
2022-12-14T05:53:44.876Z,-9.57
2022-12-14T05:56:13.831Z,-9.46
2022-12-14T05:58:41.671Z,-9.35
2022-12-14T06:01:18.535Z,-9.33
2022-12-14T06:03:47.009Z,-9.28
2022-12-14T06:06:15.065Z,-9.26
2022-12-14T06:08:45.599Z,-9.37
2022-12-14T06:11:21.811Z,-9.22
2022-12-14T06:13:49.820Z,-9.14
2022-12-14T06:16:25.391Z,-9.06
2022-12-14T06:18:54.993Z,-9.01
2022-12-14T06:21:26.169Z,-9.03
2022-12-14T06:23:54.936Z,-9.05
2022-12-14T06:26:23.044Z,-9.08
2022-12-14T06:28:51.112Z,-9.08
2022-12-14T06:31:21.168Z,-9.10
2022-12-14T06:33:49.559Z,-9.13
2022-12-14T06:36:23.683Z,-9.25
2022-12-14T06:38:52.051Z,-9.38
2022-12-14T06:41:20.015Z,-9.47
2022-12-14T06:43:49.269Z,-9.57
2022-12-14T06:46:19.002Z,-9.58
2022-12-14T06:48:55.814Z,-9.64
2022-12-14T06:51:23.983Z,-9.72
2022-12-14T06:53:56.127Z,-9.80
2022-12-14T06:56:25.775Z,-9.82
2022-12-14T06:58:57.015Z,-9.87
2022-12-14T07:01:25.786Z,-9.95
2022-12-14T07:03:56.015Z,-10.04
2022-12-14T07:06:24.725Z,-10.04
2022-12-14T07:08:57.751Z,-10.06
2022-12-14T07:11:29.813Z,-10.05
2022-12-14T07:13:57.985Z,-10.09
2022-12-14T07:16:27.841Z,-10.08
2022-12-14T07:18:55.750Z,-10.11
2022-12-14T07:21:23.773Z,-10.15
2022-12-14T07:23:54.772Z,-10.26
2022-12-14T07:26:27.780Z,-10.28
2022-12-14T07:28:55.870Z,-10.34
2022-12-14T07:31:25.428Z,-10.39
2022-12-14T07:33:55.124Z,-10.43
2022-12-14T07:36:23.853Z,-10.47
2022-12-14T07:38:52.051Z,-10.52
2022-12-14T07:41:24.196Z,-10.45
2022-12-14T07:43:52.658Z,-10.43
2022-12-14T07:46:22.353Z,-10.48
2022-12-14T07:48:52.563Z,-10.39
2022-12-14T07:51:22.639Z,-10.38
2022-12-14T07:53:51.708Z,-10.36
2022-12-14T07:56:21.925Z,-10.33
2022-12-14T07:58:49.774Z,-10.30
2022-12-14T08:01:19.450Z,-10.33
2022-12-14T08:03:55.325Z,-10.26
2022-12-14T08:06:23.882Z,-10.19
2022-12-14T08:08:52.153Z,-10.19
2022-12-14T08:11:22.320Z,-10.19
2022-12-14T08:14:11.860Z,-10.25
2022-12-14T08:16:39.342Z,-10.20
2022-12-14T08:19:06.759Z,-10.13
2022-12-14T08:21:34.111Z,-10.11
2022-12-14T08:24:01.822Z,-10.07
2022-12-14T08:26:35.207Z,-10.06
2022-12-14T08:29:04.657Z,-10.07
2022-12-14T08:31:32.668Z,-10.00
2022-12-14T08:34:01.523Z,-9.99
2022-12-14T08:36:32.902Z,-9.89
2022-12-14T08:39:02.623Z,-9.86
2022-12-14T08:41:30.229Z,-9.82
2022-12-14T08:43:59.575Z,-9.81
2022-12-14T08:46:29.266Z,-9.69
2022-12-14T08:48:57.469Z,-9.71
2022-12-14T08:51:25.542Z,-9.66
2022-12-14T08:53:54.148Z,-9.54
2022-12-14T08:56:24.000Z,-9.44
2022-12-14T08:58:51.950Z,-9.35
2022-12-14T09:01:21.761Z,-9.26
2022-12-14T09:03:50.816Z,-9.19
2022-12-14T09:06:21.088Z,-9.09
2022-12-14T09:08:49.671Z,-8.98
2022-12-14T09:11:19.470Z,-8.96
2022-12-14T09:13:47.399Z,-8.82
2022-12-14T09:16:19.566Z,-8.70
2022-12-14T09:18:48.019Z,-8.61
2022-12-14T09:21:15.916Z,-8.55
2022-12-14T09:23:43.854Z,-8.57
2022-12-14T09:26:19.730Z,-8.39
2022-12-14T09:28:52.425Z,-8.27
2022-12-14T09:31:22.474Z,-8.13
2022-12-14T09:33:50.620Z,-7.99
2022-12-14T09:36:23.288Z,-7.95
2022-12-14T09:38:52.715Z,-7.90
2022-12-14T09:41:45.306Z,-7.85
2022-12-14T09:44:36.264Z,-7.80
2022-12-14T09:47:32.697Z,-7.74
2022-12-14T09:50:06.866Z,-7.70
2022-12-14T09:52:40.148Z,-7.66
2022-12-14T09:55:31.399Z,-7.61
2022-12-14T09:58:01.690Z,-7.53
2022-12-14T10:00:38.180Z,-7.40
2022-12-14T10:03:27.593Z,-7.23
2022-12-14T10:06:21.724Z,-7.10
2022-12-14T10:08:54.523Z,-7.06
2022-12-14T10:11:31.609Z,-6.94
2022-12-14T10:14:13.532Z,-6.85
2022-12-14T10:16:51.573Z,-6.75
2022-12-14T10:19:22.383Z,-6.67
2022-12-14T10:22:00.979Z,-6.53
2022-12-14T10:24:36.413Z,-6.49
2022-12-14T10:27:07.591Z,-6.38
2022-12-14T10:29:43.832Z,-6.29
2022-12-14T10:32:37.560Z,-6.17
2022-12-14T10:35:17.910Z,-6.08
2022-12-14T10:37:49.384Z,-6.01
2022-12-14T10:40:34.130Z,-5.97
2022-12-14T10:43:39.374Z,-5.90
2022-12-14T10:46:29.849Z,-5.79
2022-12-14T10:49:04.605Z,-5.78
2022-12-14T10:51:38.545Z,-5.73
2022-12-14T10:54:45.429Z,-5.60
2022-12-14T10:57:21.010Z,-5.58
2022-12-14T11:00:05.646Z,-5.48
2022-12-14T11:02:39.190Z,-5.45
2022-12-14T11:05:46.140Z,-5.41
2022-12-14T11:08:48.078Z,-5.28
2022-12-14T11:11:26.953Z,-5.16
2022-12-14T11:14:09.319Z,-5.17
2022-12-14T11:16:39.939Z,-5.17
2022-12-14T11:19:29.658Z,-5.08
2022-12-14T11:22:14.705Z,-5.12
2022-12-14T11:24:48.621Z,-5.04
2022-12-14T11:27:21.230Z,-5.08
2022-12-14T11:29:49.700Z,-4.94
2022-12-14T11:32:23.779Z,-4.91
2022-12-14T11:34:57.619Z,-4.99
2022-12-14T11:37:31.775Z,-4.95
2022-12-14T11:40:06.252Z,-4.85
2022-12-14T11:42:34.357Z,-4.79
2022-12-14T11:45:26.917Z,-4.65
2022-12-14T11:48:21.748Z,-4.53
2022-12-14T11:50:50.574Z,-4.47
2022-12-14T11:53:20.096Z,-4.45
2022-12-14T11:55:58.523Z,-4.46
2022-12-14T11:58:33.192Z,-4.39
2022-12-14T12:01:11.401Z,-4.51
2022-12-14T12:03:45.712Z,-4.57
2022-12-14T12:06:15.255Z,-4.53
2022-12-14T12:08:44.895Z,-4.48
2022-12-14T12:11:20.708Z,-4.56
2022-12-14T12:13:51.911Z,-4.46
2022-12-14T12:16:20.168Z,-4.47
2022-12-14T12:19:12.172Z,-4.40
2022-12-14T12:21:42.259Z,-4.33
2022-12-14T12:25:16.752Z,-4.31
2022-12-14T12:27:40.670Z,-4.34
2022-12-14T12:30:28.740Z,-4.33
2022-12-14T12:33:03.414Z,-4.46
2022-12-14T12:35:50.579Z,-4.43
2022-12-14T12:38:26.180Z,-4.50
2022-12-14T12:41:22.865Z,-4.66
2022-12-14T12:43:59.455Z,-4.52
2022-12-14T12:46:30.720Z,-4.53
2022-12-14T12:49:13.283Z,-4.67
2022-12-14T12:51:43.732Z,-4.84
2022-12-14T12:54:31.941Z,-4.77
2022-12-14T12:57:00.759Z,-4.86
2022-12-14T12:59:31.017Z,-4.80
2022-12-14T13:02:01.550Z,-4.80
2022-12-14T13:04:38.679Z,-4.83
2022-12-14T13:07:28.597Z,-4.86
2022-12-14T13:10:14.740Z,-4.91
2022-12-14T13:12:48.019Z,-5.01
2022-12-14T13:15:22.169Z,-4.98
2022-12-14T13:17:53.453Z,-4.99
2022-12-14T13:20:24.493Z,-5.11
2022-12-14T13:22:52.736Z,-5.18
2022-12-14T13:25:22.426Z,-5.15
2022-12-14T13:28:16.189Z,-5.25
2022-12-14T13:30:54.209Z,-5.22
2022-12-14T13:33:52.904Z,-5.26
2022-12-14T13:36:42.663Z,-5.30
2022-12-14T13:39:10.460Z,-5.30
2022-12-14T13:41:56.456Z,-5.32
2022-12-14T13:44:45.014Z,-5.40
2022-12-14T13:47:16.017Z,-5.40
2022-12-14T13:50:33.838Z,-5.41
2022-12-14T13:52:43.349Z,-5.47
2022-12-14T13:55:40.312Z,-5.41
2022-12-14T13:58:13.682Z,-5.49
2022-12-14T14:00:52.342Z,-5.58
2022-12-14T14:03:38.942Z,-5.52
2022-12-14T14:06:12.943Z,-5.55
2022-12-14T14:08:43.051Z,-5.57
2022-12-14T14:11:38.971Z,-5.57
2022-12-14T14:14:21.037Z,-5.64
2022-12-14T14:16:56.684Z,-5.66
2022-12-14T14:19:28.711Z,-5.67
2022-12-14T14:22:23.223Z,-5.63
2022-12-14T14:24:58.569Z,-5.64
2022-12-14T14:27:50.107Z,-5.66
2022-12-14T14:30:37.810Z,-5.74
2022-12-14T14:33:46.724Z,-5.82
2022-12-14T14:36:23.407Z,-5.79
2022-12-14T14:38:51.637Z,-5.83
2022-12-14T14:41:45.064Z,-5.81
2022-12-14T14:44:22.317Z,-5.85
2022-12-14T14:46:50.660Z,-5.95
2022-12-14T14:49:27.945Z,-5.94
2022-12-14T14:51:55.376Z,-5.94
2022-12-14T14:55:10.671Z,-6.10
2022-12-14T14:57:36.512Z,-6.05
2022-12-14T15:00:06.209Z,-6.11
2022-12-14T15:02:40.256Z,-6.14
2022-12-14T15:05:41.701Z,-6.19
2022-12-14T15:08:05.651Z,-6.22
2022-12-14T15:10:38.752Z,-6.23
2022-12-14T15:13:06.643Z,-6.26
2022-12-14T15:15:43.786Z,-6.33
2022-12-14T15:18:23.168Z,-6.33
2022-12-14T15:20:58.518Z,-6.41
2022-12-14T15:23:40.004Z,-6.48
2022-12-14T15:26:28.998Z,-6.54
2022-12-14T15:29:01.192Z,-6.56
2022-12-14T15:31:38.577Z,-6.64
2022-12-14T15:34:07.098Z,-6.64
2022-12-14T15:36:38.200Z,-6.63
2022-12-14T15:39:05.934Z,-6.76
2022-12-14T15:41:33.710Z,-6.77
2022-12-14T15:44:01.345Z,-6.94
2022-12-14T15:46:30.859Z,-6.92
2022-12-14T15:49:08.984Z,-6.95
2022-12-14T15:51:39.788Z,-7.02
2022-12-14T15:54:18.774Z,-7.04
2022-12-14T15:56:52.522Z,-7.08
2022-12-14T15:59:31.257Z,-7.13
2022-12-14T16:02:18.538Z,-7.19
2022-12-14T16:04:46.534Z,-7.19
2022-12-14T16:07:18.817Z,-7.13
2022-12-14T16:09:52.283Z,-7.19
2022-12-14T16:12:45.315Z,-7.14
2022-12-14T16:15:21.810Z,-7.13
2022-12-14T16:17:54.701Z,-7.30
2022-12-14T16:20:31.903Z,-7.18
2022-12-14T16:23:22.529Z,-7.11
2022-12-14T16:25:53.561Z,-7.13
2022-12-14T16:28:35.821Z,-7.19
2022-12-14T16:31:06.622Z,-7.27
2022-12-14T16:33:35.624Z,-7.37
2022-12-14T16:36:25.555Z,-7.42
2022-12-14T16:39:00.202Z,-7.46
2022-12-14T16:41:52.365Z,-7.49
2022-12-14T16:44:34.697Z,-7.55
2022-12-14T16:47:04.733Z,-7.59
2022-12-14T16:49:40.428Z,-7.67
2022-12-14T16:52:18.076Z,-7.68
2022-12-14T16:55:18.871Z,-7.67
2022-12-14T16:57:49.041Z,-7.71
2022-12-14T17:00:23.092Z,-7.66
2022-12-14T17:02:59.076Z,-7.72
2022-12-14T17:05:33.924Z,-7.70
2022-12-14T17:08:01.582Z,-7.77
2022-12-14T17:10:30.772Z,-7.69
2022-12-14T17:12:59.256Z,-7.67
2022-12-14T17:15:30.377Z,-7.71
2022-12-14T17:18:00.191Z,-7.67
2022-12-14T17:20:30.902Z,-7.68
2022-12-14T17:23:00.330Z,-7.68
2022-12-14T17:25:29.886Z,-7.67
2022-12-14T17:27:57.734Z,-7.68
2022-12-14T17:30:26.337Z,-7.63
2022-12-14T17:32:54.896Z,-7.62
2022-12-14T17:35:29.944Z,-7.61
2022-12-14T17:37:57.724Z,-7.64
2022-12-14T17:40:25.817Z,-7.59
2022-12-14T17:42:56.794Z,-7.53
2022-12-14T17:45:27.227Z,-7.53
2022-12-14T17:47:55.158Z,-7.50
2022-12-14T17:50:23.053Z,-7.49
2022-12-14T17:52:50.813Z,-7.48
2022-12-14T17:55:21.316Z,-7.46
2022-12-14T17:57:49.308Z,-7.43
2022-12-14T18:00:37.587Z,-7.40
2022-12-14T18:03:05.601Z,-7.39
2022-12-14T18:05:33.789Z,-7.40
2022-12-14T18:08:01.288Z,-7.41
2022-12-14T18:10:29.106Z,-7.44
2022-12-14T18:12:56.890Z,-7.55
2022-12-14T18:15:27.434Z,-7.49
2022-12-14T18:17:54.960Z,-7.49
2022-12-14T18:20:24.343Z,-7.42
2022-12-14T18:22:52.515Z,-7.46
2022-12-14T18:25:22.508Z,-7.41
2022-12-14T18:27:50.265Z,-7.44
2022-12-14T18:30:18.225Z,-7.37
2022-12-14T18:32:45.834Z,-7.38
2022-12-14T18:35:29.773Z,-7.27
2022-12-14T18:37:57.592Z,-7.23
2022-12-14T18:40:27.973Z,-7.19
2022-12-14T18:42:56.579Z,-7.17
2022-12-14T18:45:27.125Z,-7.10
2022-12-14T18:47:54.826Z,-7.02
2022-12-14T18:50:23.452Z,-7.05
2022-12-14T18:52:51.521Z,-7.01
2022-12-14T18:55:20.596Z,-6.87
2022-12-14T18:57:50.326Z,-6.77
2022-12-14T19:00:20.620Z,-6.79
2022-12-14T19:02:50.054Z,-6.71
2022-12-14T19:05:26.026Z,-6.74
2022-12-14T19:07:54.702Z,-6.67
2022-12-14T19:10:24.922Z,-6.57
2022-12-14T19:12:52.374Z,-6.55
2022-12-14T19:15:26.594Z,-6.54
2022-12-14T19:17:54.896Z,-6.49
2022-12-14T19:20:23.516Z,-6.43
2022-12-14T19:22:51.414Z,-6.38
2022-12-14T19:25:20.654Z,-6.36
2022-12-14T19:30:37.850Z,-6.27
2022-12-14T19:33:05.323Z,-6.31
2022-12-14T19:35:32.936Z,-6.30
2022-12-14T19:38:00.478Z,-6.31
2022-12-14T19:40:28.265Z,-6.30
2022-12-14T19:42:55.701Z,-6.17
2022-12-14T19:45:23.378Z,-6.14
2022-12-14T19:47:51.096Z,-6.14
2022-12-14T19:50:18.932Z,-6.08
2022-12-14T19:52:46.450Z,-6.10
2022-12-14T19:55:14.200Z,-6.00
2022-12-14T19:57:42.492Z,-6.05
2022-12-14T20:00:11.470Z,-5.94
2022-12-14T20:02:39.110Z,-5.89
2022-12-14T20:05:07.530Z,-5.83
2022-12-14T20:07:40.157Z,-5.88
2022-12-14T20:10:11.486Z,-5.80
2022-12-14T20:12:39.366Z,-5.77
2022-12-14T20:15:07.779Z,-5.78
2022-12-14T20:17:35.270Z,-5.71
2022-12-14T20:20:03.532Z,-5.73
2022-12-14T20:22:32.514Z,-5.68
2022-12-14T20:25:00.588Z,-5.69
2022-12-14T20:27:28.045Z,-5.69
2022-12-14T20:29:56.794Z,-5.69
2022-12-14T20:32:24.237Z,-5.66
2022-12-14T20:34:52.669Z,-5.65
2022-12-14T20:37:20.515Z,-5.64
2022-12-14T20:39:48.397Z,-5.63
2022-12-14T20:42:15.706Z,-5.66
2022-12-14T20:44:43.669Z,-5.65
2022-12-14T20:47:16.895Z,-5.68
2022-12-14T20:49:44.829Z,-5.67
2022-12-14T20:52:12.616Z,-5.66
2022-12-14T20:54:40.620Z,-5.65
2022-12-14T20:57:08.064Z,-5.70
2022-12-14T20:59:36.025Z,-5.67
2022-12-14T21:02:03.586Z,-5.67
2022-12-14T21:04:31.511Z,-5.67
2022-12-14T21:06:59.500Z,-5.67
2022-12-14T21:09:27.388Z,-5.60
2022-12-14T21:12:13.405Z,-5.63
2022-12-14T21:14:48.139Z,-5.60
2022-12-14T21:17:15.869Z,-5.59
2022-12-14T21:19:43.591Z,-5.62
2022-12-14T21:22:15.194Z,-5.63
2022-12-14T21:27:30.573Z,-5.62
2022-12-14T21:29:58.549Z,-5.68
2022-12-14T21:32:25.983Z,-5.58
2022-12-14T21:34:53.727Z,-5.68
2022-12-14T21:37:21.379Z,-5.60
2022-12-14T21:39:54.391Z,-5.63
2022-12-14T21:42:24.073Z,-5.70
2022-12-14T21:44:53.179Z,-5.61
2022-12-14T21:47:29.416Z,-5.62
2022-12-14T21:49:57.571Z,-5.63
2022-12-14T21:52:26.750Z,-5.58
2022-12-14T21:54:55.074Z,-5.58
2022-12-14T21:57:43.092Z,-5.60
2022-12-14T22:00:19.348Z,-5.56
2022-12-14T22:02:47.249Z,-5.59
2022-12-14T22:05:15.386Z,-5.52
2022-12-14T22:07:42.969Z,-5.55
2022-12-14T22:10:10.696Z,-5.53
2022-12-14T22:12:38.071Z,-5.54
2022-12-14T22:15:06.097Z,-5.52
2022-12-14T22:17:33.429Z,-5.50
2022-12-14T22:20:01.145Z,-5.49
2022-12-14T22:22:28.666Z,-5.44
2022-12-14T22:24:56.707Z,-5.43
2022-12-14T22:27:24.053Z,-5.40
2022-12-14T22:29:51.941Z,-5.46
2022-12-14T22:32:19.312Z,-5.42
2022-12-14T22:34:47.276Z,-5.39
2022-12-14T22:37:16.879Z,-5.39
2022-12-14T22:39:44.711Z,-5.41
2022-12-14T22:42:16.464Z,-5.36
2022-12-14T22:44:44.159Z,-5.40
2022-12-14T22:47:11.532Z,-5.36
2022-12-14T22:49:39.204Z,-5.37
2022-12-14T22:52:06.623Z,-5.39
2022-12-14T22:54:37.085Z,-5.39
2022-12-14T22:57:08.378Z,-5.36
2022-12-14T22:59:41.960Z,-5.46
2022-12-14T23:02:09.663Z,-5.41
2022-12-14T23:04:38.242Z,-5.47
2022-12-14T23:07:06.075Z,-5.37
2022-12-14T23:09:52.140Z,-5.41
2022-12-14T23:12:38.759Z,-5.41
2022-12-14T23:15:25.120Z,-5.42
2022-12-14T23:18:14.191Z,-5.40
2022-12-14T23:21:00.357Z,-5.41
2022-12-14T23:23:46.430Z,-5.42
2022-12-14T23:26:32.808Z,-5.39
2022-12-14T23:29:19.047Z,-5.46
2022-12-14T23:32:05.304Z,-5.37
2022-12-14T23:34:51.103Z,-5.39
2022-12-14T23:37:37.370Z,-5.42
2022-12-14T23:40:23.842Z,-5.37
2022-12-14T23:43:09.940Z,-5.36
2022-12-14T23:45:56.037Z,-5.36
2022-12-14T23:48:42.189Z,-5.35
2022-12-14T23:51:27.937Z,-5.35
2022-12-14T23:54:14.076Z,-5.39
2022-12-14T23:57:00.073Z,-5.38
2022-12-14T23:59:49.385Z,-5.41
